Time;durP1;ratioP1;P1;durP2;ratioP2;P2;SDS_P1;SDS_P2;PMS_P1;PMS_P2;Temp;Humidity;BMP_temperature;BMP_pressure;BME280_temperature;BME280_humidity;BME280_pressure;Samples;Min_cycle;Max_cycle;Signal;HPM_P1;HPM_P2
2021/06/08 00:01:12;;;;;;;8.35;7.65;;;;;;;;;;1899643;75;20119;-76
2021/06/08 00:03:37;;;;;;;9.40;8.50;;;;;;;;;;1899933;67;20138;-76
2021/06/08 00:06:03;;;;;;;9.32;7.82;;;;;;;;;;1903211;67;20085;-78
2021/06/08 00:08:28;;;;;;;8.93;8.00;;;;;;;;;;1902253;75;20077;-76
2021/06/08 00:10:54;;;;;;;8.82;7.97;;;;;;;;;;1899691;75;20095;-76
2021/06/08 00:13:19;;;;;;;9.50;8.50;;;;;;;;;;1898794;75;20085;-79
2021/06/08 00:15:44;;;;;;;8.25;7.50;;;;;;;;;;1897925;67;20101;-77
2021/06/08 00:18:10;;;;;;;8.90;8.10;;;;;;;;;;1896380;75;20148;-76
2021/06/08 00:20:35;;;;;;;9.15;8.30;;;;;;;;;;1900082;75;20443;-76
2021/06/08 00:23:00;;;;;;;8.73;7.93;;;;;;;;;;1894346;75;20156;-76
2021/06/08 00:25:26;;;;;;;9.10;8.20;;;;;;;;;;1902966;67;20085;-76
2021/06/08 00:27:52;;;;;;;10.57;7.80;;;;;;;;;;1897015;67;20420;-76
2021/06/08 00:30:18;;;;;;;8.85;8.05;;;;;;;;;;1900752;67;20086;-75
2021/06/08 00:32:43;;;;;;;8.07;7.38;;;;;;;;;;1899679;75;20085;-76
2021/06/08 00:35:08;;;;;;;8.80;8.00;;;;;;;;;;1898893;75;20137;-76
2021/06/08 00:37:35;;;;;;;8.73;7.88;;;;;;;;;;1895566;67;20387;-77
2021/06/08 00:40:00;;;;;;;8.45;7.60;;;;;;;;;;1899385;75;20085;-76
2021/06/08 00:42:29;;;;;;;8.52;7.72;;;;;;;;;;1902236;75;20429;-76
2021/06/08 00:44:55;;;;;;;8.68;7.68;;;;;;;;;;1899577;75;20096;-77
2021/06/08 00:47:20;;;;;;;8.77;7.97;;;;;;;;;;1902599;75;20080;-76
2021/06/08 00:49:45;;;;;;;8.55;7.75;;;;;;;;;;1898209;67;20148;-77
2021/06/08 00:52:11;;;;;;;8.75;7.95;;;;;;;;;;1896502;75;20081;-76
2021/06/08 00:54:36;;;;;;;8.73;7.93;;;;;;;;;;1899578;75;20153;-76
2021/06/08 00:57:02;;;;;;;8.40;7.60;;;;;;;;;;1899605;75;20100;-77
2021/06/08 00:59:27;;;;;;;8.10;7.40;;;;;;;;;;1897279;67;20131;-76
2021/06/08 01:01:52;;;;;;;8.10;7.40;;;;;;;;;;1899284;75;20132;-76
2021/06/08 01:04:18;;;;;;;9.13;8.25;;;;;;;;;;1899863;75;20088;-77
2021/06/08 01:06:47;;;;;;;8.80;8.00;;;;;;;;;;1899565;75;20074;-76
2021/06/08 01:09:13;;;;;;;7.93;7.20;;;;;;;;;;1899814;75;20081;-76
2021/06/08 01:11:39;;;;;;;8.52;7.63;;;;;;;;;;1896308;67;20100;-77
2021/06/08 01:14:04;;;;;;;8.65;7.95;;;;;;;;;;1896751;75;20096;-77
2021/06/08 01:16:30;;;;;;;8.82;8.02;;;;;;;;;;1901413;75;20149;-77
2021/06/08 01:18:55;;;;;;;8.40;7.55;;;;;;;;;;1896778;75;20116;-76
2021/06/08 01:21:21;;;;;;;8.05;7.35;;;;;;;;;;1900198;67;20495;-76
2021/06/08 01:23:46;;;;;;;8.73;7.82;;;;;;;;;;1900638;75;20116;-76
2021/06/08 01:26:11;;;;;;;8.40;7.60;;;;;;;;;;1896921;75;20090;-77
2021/06/08 01:28:37;;;;;;;8.20;7.40;;;;;;;;;;1899180;75;20081;-76
2021/06/08 01:31:06;;;;;;;8.00;7.20;;;;;;;;;;1899477;75;20101;-77
2021/06/08 01:33:32;;;;;;;8.50;7.70;;;;;;;;;;1899000;67;20105;-77
2021/06/08 01:35:57;;;;;;;8.85;7.97;;;;;;;;;;1898680;75;20100;-78
2021/06/08 01:38:22;;;;;;;8.40;7.50;;;;;;;;;;1898681;75;20137;-76
2021/06/08 01:40:49;;;;;;;8.95;8.05;;;;;;;;;;1899647;75;20556;-77
2021/06/08 01:43:15;;;;;;;8.30;7.50;;;;;;;;;;1899947;67;20342;-76
2021/06/08 01:45:41;;;;;;;8.48;7.60;;;;;;;;;;1899639;75;20081;-76
2021/06/08 01:48:06;;;;;;;8.40;7.60;;;;;;;;;;1901540;67;20499;-76
2021/06/08 01:50:32;;;;;;;8.40;7.60;;;;;;;;;;1899623;75;20089;-77
2021/06/08 01:53:10;;;;;;;8.07;7.38;;;;;;;;;;1895246;75;20093;-77
2021/06/08 01:55:45;;;;;;;8.77;7.97;;;;;;;;;;1900026;67;20093;-77
2021/06/08 01:58:16;;;;;;;9.32;7.75;;;;;;;;;;1896461;75;20089;-76
2021/06/08 02:00:48;;;;;;;8.77;7.55;;;;;;;;;;1900209;75;20136;-76
2021/06/08 02:03:22;;;;;;;7.78;7.10;;;;;;;;;;1902299;75;20096;-77
2021/06/08 02:05:53;;;;;;;8.50;7.70;;;;;;;;;;1896649;67;20086;-76
2021/06/08 02:08:28;;;;;;;8.23;7.53;;;;;;;;;;1893363;75;20089;-76
2021/06/08 02:11:15;;;;;;;8.60;7.85;;;;;;;;;;1899584;75;20082;-76
2021/06/08 02:14:06;;;;;;;7.78;7.07;;;;;;;;;;1895572;75;20089;-76
2021/06/08 02:16:32;;;;;;;8.30;7.50;;;;;;;;;;1902655;67;20077;-76
2021/06/08 02:18:58;;;;;;;8.52;7.38;;;;;;;;;;1899371;75;20108;-76
2021/06/08 02:21:28;;;;;;;8.82;7.25;;;;;;;;;;1905128;67;20250;-77
2021/06/08 02:23:54;;;;;;;8.23;7.32;;;;;;;;;;1893876;68;20391;-76
2021/06/08 02:26:19;;;;;;;8.55;7.50;;;;;;;;;;1894405;75;20078;-77
2021/06/08 02:28:45;;;;;;;7.95;7.25;;;;;;;;;;1895817;67;20418;-77
2021/06/08 02:31:10;;;;;;;8.25;7.45;;;;;;;;;;1896765;75;20081;-77
2021/06/08 02:33:36;;;;;;;8.05;7.35;;;;;;;;;;1896436;75;20093;-76
2021/06/08 02:36:03;;;;;;;8.35;7.55;;;;;;;;;;1897280;75;20093;-76
2021/06/08 02:38:28;;;;;;;8.25;7.50;;;;;;;;;;1902379;67;20089;-77
2021/06/08 02:40:54;;;;;;;7.70;7.00;;;;;;;;;;1899355;75;20505;-76
2021/06/08 02:43:20;;;;;;;8.65;7.85;;;;;;;;;;1896971;75;20192;-77
2021/06/08 02:45:45;;;;;;;7.97;7.25;;;;;;;;;;1899359;75;20490;-76
2021/06/08 02:48:11;;;;;;;8.00;7.20;;;;;;;;;;1899057;75;20140;-76
2021/06/08 02:50:36;;;;;;;7.75;7.05;;;;;;;;;;1897015;67;20092;-76
2021/06/08 02:53:01;;;;;;;8.55;7.75;;;;;;;;;;1896177;75;20100;-77
2021/06/08 02:55:27;;;;;;;7.72;6.95;;;;;;;;;;1898897;75;20500;-77
2021/06/08 02:57:54;;;;;;;7.57;6.88;;;;;;;;;;1900840;75;20084;-77
2021/06/08 03:00:19;;;;;;;7.32;6.63;;;;;;;;;;1899765;67;20524;-77
2021/06/08 03:02:45;;;;;;;7.82;7.15;;;;;;;;;;1899083;75;20089;-77
2021/06/08 03:05:31;;;;;;;7.53;6.93;;;;;;;;;;1899415;75;20115;-76
2021/06/08 03:08:02;;;;;;;8.07;7.28;;;;;;;;;;1898954;75;20085;-76
2021/06/08 03:10:30;;;;;;;8.25;7.45;;;;;;;;;;1899250;75;20514;-76
2021/06/08 03:12:56;;;;;;;7.15;6.45;;;;;;;;;;1900123;67;20085;-76
2021/06/08 03:15:35;;;;;;;8.18;7.47;;;;;;;;;;1896480;75;20092;-76
2021/06/08 03:18:01;;;;;;;7.53;6.93;;;;;;;;;;1898938;75;20085;-76
2021/06/08 03:20:45;;;;;;;8.18;7.40;;;;;;;;;;1896902;75;20400;-75
2021/06/08 03:23:12;;;;;;;8.15;7.35;;;;;;;;;;1896024;67;20407;-76
2021/06/08 03:25:37;;;;;;;8.68;7.20;;;;;;;;;;1896348;75;20093;-77
2021/06/08 03:28:03;;;;;;;7.90;7.10;;;;;;;;;;1893654;75;20090;-76
2021/06/08 03:30:28;;;;;;;8.00;7.30;;;;;;;;;;1894675;75;20088;-76
2021/06/08 03:32:53;;;;;;;8.13;7.32;;;;;;;;;;1896856;75;20077;-77
2021/06/08 03:35:23;;;;;;;7.18;6.53;;;;;;;;;;1896920;67;20376;-77
2021/06/08 03:37:48;;;;;;;8.32;7.53;;;;;;;;;;1900062;75;20093;-76
2021/06/08 03:40:14;;;;;;;7.32;6.72;;;;;;;;;;1902049;67;20383;-76
2021/06/08 03:42:40;;;;;;;7.82;7.03;;;;;;;;;;1894422;75;20108;-76
2021/06/08 03:45:10;;;;;;;8.02;7.18;;;;;;;;;;1898608;67;20101;-76
2021/06/08 03:47:35;;;;;;;7.97;7.28;;;;;;;;;;1896802;75;20088;-76
2021/06/08 03:50:01;;;;;;;8.48;7.63;;;;;;;;;;1898207;67;20089;-76
2021/06/08 03:52:26;;;;;;;7.80;7.10;;;;;;;;;;1896631;75;20081;-76
2021/06/08 03:54:52;;;;;;;8.07;7.38;;;;;;;;;;1899233;75;20085;-77
2021/06/08 03:57:19;;;;;;;8.00;7.30;;;;;;;;;;1899914;67;20503;-77
2021/06/08 03:59:44;;;;;;;7.88;7.18;;;;;;;;;;1894273;67;20143;-76
2021/06/08 04:02:09;;;;;;;7.60;6.90;;;;;;;;;;1898843;75;20089;-77
2021/06/08 04:04:35;;;;;;;8.00;7.30;;;;;;;;;;1899083;75;20523;-76
2021/06/08 04:07:00;;;;;;;7.68;6.90;;;;;;;;;;1897172;67;20082;-77
2021/06/08 04:09:26;;;;;;;7.72;7.03;;;;;;;;;;1894570;75;20085;-76
2021/06/08 04:11:51;;;;;;;7.68;6.97;;;;;;;;;;1896929;75;20093;-76
2021/06/08 04:14:17;;;;;;;7.60;6.95;;;;;;;;;;1896874;75;20086;-77
2021/06/08 04:16:44;;;;;;;7.55;6.85;;;;;;;;;;1895973;75;20145;-77
2021/06/08 04:19:10;;;;;;;8.23;7.43;;;;;;;;;;1900043;67;20082;-76
2021/06/08 04:21:35;;;;;;;7.32;6.72;;;;;;;;;;1896750;75;20139;-76
2021/06/08 04:24:03;;;;;;;7.47;6.78;;;;;;;;;;1897516;75;20141;-77
2021/06/08 04:26:28;;;;;;;7.50;6.88;;;;;;;;;;1899018;75;20204;-77
2021/06/08 04:28:54;;;;;;;8.18;7.47;;;;;;;;;;1895945;67;20144;-77
2021/06/08 04:31:20;;;;;;;8.32;7.55;;;;;;;;;;1901065;67;20642;-76
2021/06/08 04:33:46;;;;;;;7.57;6.90;;;;;;;;;;1900585;75;20184;-78
2021/06/08 04:36:13;;;;;;;8.15;7.45;;;;;;;;;;1898077;75;20126;-76
2021/06/08 04:38:38;;;;;;;7.97;7.18;;;;;;;;;;1899589;75;20093;-77
2021/06/08 04:41:04;;;;;;;7.43;6.82;;;;;;;;;;1899371;67;20434;-77
2021/06/08 04:43:29;;;;;;;7.85;7.05;;;;;;;;;;1899011;75;20086;-77
2021/06/08 04:45:54;;;;;;;7.55;6.85;;;;;;;;;;1891993;76;20082;-77
2021/06/08 04:48:23;;;;;;;7.47;6.78;;;;;;;;;;1898284;75;20210;-77
2021/06/08 04:50:52;;;;;;;7.55;6.72;;;;;;;;;;1896025;67;20391;-77
2021/06/08 04:53:18;;;;;;;7.63;7.00;;;;;;;;;;1898419;75;20112;-76
2021/06/08 04:55:43;;;;;;;7.80;7.10;;;;;;;;;;1897071;75;20081;-77
2021/06/08 04:58:08;;;;;;;7.03;6.43;;;;;;;;;;1899352;75;20085;-77
2021/06/08 05:00:43;;;;;;;7.60;7.00;;;;;;;;;;1898020;75;20482;-77
2021/06/08 05:03:09;;;;;;;7.50;6.80;;;;;;;;;;1897102;67;20093;-77
2021/06/08 05:05:35;;;;;;;7.90;7.07;;;;;;;;;;1899175;67;20085;-77
2021/06/08 05:08:10;;;;;;;7.57;6.88;;;;;;;;;;1897185;75;20088;-76
2021/06/08 05:10:58;;;;;;;6.53;6.03;;;;;;;;;;1899877;75;20105;-78
2021/06/08 05:13:25;;;;;;;7.90;7.05;;;;;;;;;;1899057;67;20086;-78
2021/06/08 05:15:50;;;;;;;7.80;7.10;;;;;;;;;;1897808;75;20088;-77
2021/06/08 05:18:15;;;;;;;7.97;7.03;;;;;;;;;;1899129;75;20081;-77
2021/06/08 05:20:41;;;;;;;7.93;7.22;;;;;;;;;;1896639;75;20499;-77
2021/06/08 05:23:07;;;;;;;7.75;6.57;;;;;;;;;;1896762;67;20151;-77
2021/06/08 05:25:32;;;;;;;7.13;6.53;;;;;;;;;;1899178;75;20093;-77
2021/06/08 05:27:58;;;;;;;7.97;6.80;;;;;;;;;;1899173;75;20085;-78
2021/06/08 05:30:23;;;;;;;9.00;6.90;;;;;;;;;;1897369;75;20092;-77
2021/06/08 05:32:49;;;;;;;8.95;6.90;;;;;;;;;;1899665;75;20092;-77
2021/06/08 05:35:14;;;;;;;9.93;6.93;;;;;;;;;;1897087;67;20088;-78
2021/06/08 05:37:42;;;;;;;7.60;6.85;;;;;;;;;;1899322;75;20487;-76
2021/06/08 05:40:07;;;;;;;9.15;6.70;;;;;;;;;;1899115;75;20132;-77
2021/06/08 05:42:33;;;;;;;11.23;6.90;;;;;;;;;;1902163;75;20590;-76
2021/06/08 05:44:58;;;;;;;14.98;9.98;;;;;;;;;;1902268;67;20092;-77
2021/06/08 05:47:24;;;;;;;18.20;11.60;;;;;;;;;;1902421;67;20087;-77
2021/06/08 05:49:49;;;;;;;18.58;10.45;;;;;;;;;;1897296;75;20087;-77
2021/06/08 05:52:14;;;;;;;11.38;9.18;;;;;;;;;;1902033;75;20103;-77
2021/06/08 05:54:40;;;;;;;14.63;9.55;;;;;;;;;;1899223;75;20085;-77
2021/06/08 05:57:07;;;;;;;12.13;8.93;;;;;;;;;;1899813;67;20092;-77
2021/06/08 05:59:33;;;;;;;11.25;8.95;;;;;;;;;;1897263;75;20569;-77
2021/06/08 06:01:58;;;;;;;10.52;8.70;;;;;;;;;;1898943;75;20085;-77
2021/06/08 06:04:25;;;;;;;11.68;8.88;;;;;;;;;;1897329;67;20091;-77
2021/06/08 06:06:50;;;;;;;9.90;8.82;;;;;;;;;;1896104;75;20090;-77
2021/06/08 06:09:21;;;;;;;12.82;8.65;;;;;;;;;;1896936;67;20085;-78
2021/06/08 06:11:48;;;;;;;9.35;8.40;;;;;;;;;;1896145;75;20157;-77
2021/06/08 06:14:21;;;;;;;9.25;8.32;;;;;;;;;;1895831;75;20086;-77
2021/06/08 06:16:49;;;;;;;11.88;8.82;;;;;;;;;;1898111;75;20093;-77
2021/06/08 06:19:15;;;;;;;11.32;8.63;;;;;;;;;;1898520;67;20381;-78
2021/06/08 06:21:40;;;;;;;10.10;9.07;;;;;;;;;;1896887;67;20143;-77
2021/06/08 06:24:06;;;;;;;9.93;8.55;;;;;;;;;;1896369;75;20089;-76
2021/06/08 06:26:32;;;;;;;10.02;8.65;;;;;;;;;;1896280;75;20142;-77
2021/06/08 06:28:58;;;;;;;10.95;8.93;;;;;;;;;;1899176;75;20082;-77
2021/06/08 06:31:24;;;;;;;9.77;8.35;;;;;;;;;;1901661;67;20099;-77
2021/06/08 06:33:53;;;;;;;10.63;8.65;;;;;;;;;;1896779;75;20097;-77
2021/06/08 06:36:20;;;;;;;10.60;8.60;;;;;;;;;;1898661;67;20415;-77
2021/06/08 06:38:45;;;;;;;10.20;8.23;;;;;;;;;;1896125;75;20097;-77
2021/06/08 06:41:11;;;;;;;9.07;8.18;;;;;;;;;;1896401;67;20085;-77
2021/06/08 06:43:36;;;;;;;9.35;8.35;;;;;;;;;;1896415;75;20104;-77
2021/06/08 06:46:02;;;;;;;10.80;8.82;;;;;;;;;;1897716;75;20558;-76
2021/06/08 06:48:27;;;;;;;13.10;10.43;;;;;;;;;;1898629;75;20371;-79
2021/06/08 06:50:53;;;;;;;13.80;11.57;;;;;;;;;;1896729;75;20510;-77
2021/06/08 06:53:18;;;;;;;13.18;11.15;;;;;;;;;;1901779;67;20092;-77
2021/06/08 06:55:47;;;;;;;13.70;12.30;;;;;;;;;;1897542;75;20082;-79
2021/06/08 06:58:13;;;;;;;15.48;13.88;;;;;;;;;;1897105;75;20116;-78
2021/06/08 07:00:38;;;;;;;16.25;14.55;;;;;;;;;;1897867;75;20406;-78
2021/06/08 07:03:04;;;;;;;15.95;14.25;;;;;;;;;;1900021;67;20085;-77
2021/06/08 07:05:30;;;;;;;18.33;15.48;;;;;;;;;;1897313;75;20089;-78
2021/06/08 07:07:55;;;;;;;16.08;14.35;;;;;;;;;;1898880;75;20081;-77
2021/06/08 07:10:23;;;;;;;17.98;16.08;;;;;;;;;;1899315;75;20137;-75
2021/06/08 07:12:48;;;;;;;18.10;15.38;;;;;;;;;;1899636;75;20089;-78
2021/06/08 07:15:14;;;;;;;16.65;14.88;;;;;;;;;;1898018;67;20191;-75
2021/06/08 07:17:40;;;;;;;16.25;14.55;;;;;;;;;;1895310;75;20669;-75
2021/06/08 07:20:06;;;;;;;16.98;13.52;;;;;;;;;;1901303;75;20139;-75
2021/06/08 07:22:35;;;;;;;16.60;14.27;;;;;;;;;;1897670;75;20333;-75
2021/06/08 07:25:02;;;;;;;16.38;14.52;;;;;;;;;;1897187;67;20232;-75
2021/06/08 07:27:27;;;;;;;16.52;14.82;;;;;;;;;;1896198;75;20089;-75
2021/06/08 07:29:52;;;;;;;15.60;13.60;;;;;;;;;;1895435;75;20111;-75
2021/06/08 07:32:23;;;;;;;16.13;13.65;;;;;;;;;;1898478;75;20088;-76
2021/06/08 07:35:08;;;;;;;16.30;14.48;;;;;;;;;;1896662;75;20091;-76
2021/06/08 07:37:33;;;;;;;15.38;13.77;;;;;;;;;;1898620;75;20140;-76
2021/06/08 07:40:09;;;;;;;15.10;13.52;;;;;;;;;;1898365;75;20081;-75
2021/06/08 07:42:38;;;;;;;14.95;13.27;;;;;;;;;;1897754;67;20487;-75
2021/06/08 07:45:11;;;;;;;16.35;13.35;;;;;;;;;;1902131;67;20159;-77
2021/06/08 07:47:36;;;;;;;14.77;13.23;;;;;;;;;;1900758;67;20406;-76
2021/06/08 07:50:07;;;;;;;14.88;13.32;;;;;;;;;;1896713;75;20100;-75
2021/06/08 07:52:33;;;;;;;15.02;13.10;;;;;;;;;;1893931;75;20086;-76
2021/06/08 07:54:58;;;;;;;14.88;13.27;;;;;;;;;;1897793;75;20128;-76
2021/06/08 07:57:24;;;;;;;14.77;13.27;;;;;;;;;;1897313;67;20573;-75
2021/06/08 07:59:50;;;;;;;14.20;12.80;;;;;;;;;;1901499;75;20089;-75
2021/06/08 08:02:21;;;;;;;13.43;12.13;;;;;;;;;;1901636;75;20085;-76
2021/06/08 08:04:51;;;;;;;13.68;12.27;;;;;;;;;;1898874;75;20100;-75
2021/06/08 08:07:23;;;;;;;14.40;13.00;;;;;;;;;;1896678;75;20368;-75
2021/06/08 08:09:55;;;;;;;14.23;12.80;;;;;;;;;;1899271;67;20092;-75
2021/06/08 08:12:23;;;;;;;15.15;13.52;;;;;;;;;;1897074;67;20100;-76
2021/06/08 08:14:51;;;;;;;14.85;13.00;;;;;;;;;;1902336;67;20085;-76
2021/06/08 08:17:16;;;;;;;14.88;13.38;;;;;;;;;;1898284;67;20089;-76
2021/06/08 08:19:42;;;;;;;14.40;12.93;;;;;;;;;;1895900;67;20338;-76
2021/06/08 08:22:07;;;;;;;15.00;13.45;;;;;;;;;;1899579;75;20152;-76
2021/06/08 08:24:34;;;;;;;14.27;12.88;;;;;;;;;;1900148;75;20449;-75
2021/06/08 08:27:03;;;;;;;14.57;13.07;;;;;;;;;;1898235;75;20521;-75
2021/06/08 08:29:29;;;;;;;14.60;13.10;;;;;;;;;;1897803;75;20598;-75
2021/06/08 08:31:55;;;;;;;14.50;13.00;;;;;;;;;;1897563;67;20112;-74
2021/06/08 08:34:20;;;;;;;15.35;13.82;;;;;;;;;;1898257;75;20399;-76
2021/06/08 08:36:45;;;;;;;14.63;12.95;;;;;;;;;;1898943;75;20391;-76
2021/06/08 08:39:11;;;;;;;14.63;12.98;;;;;;;;;;1896718;75;20086;-74
2021/06/08 08:41:40;;;;;;;13.80;12.40;;;;;;;;;;1901649;67;20135;-76
2021/06/08 08:44:08;;;;;;;13.95;12.60;;;;;;;;;;1899078;75;20104;-75
2021/06/08 08:46:34;;;;;;;13.52;12.23;;;;;;;;;;1896668;75;20089;-75
2021/06/08 08:49:00;;;;;;;14.27;12.88;;;;;;;;;;1899332;75;20085;-76
2021/06/08 08:51:26;;;;;;;14.50;13.00;;;;;;;;;;1897623;67;20140;-75
2021/06/08 08:53:52;;;;;;;13.77;12.48;;;;;;;;;;1897651;67;20087;-75
2021/06/08 08:56:18;;;;;;;14.70;13.27;;;;;;;;;;1901096;75;20085;-76
2021/06/08 08:58:44;;;;;;;15.75;12.98;;;;;;;;;;1898943;75;20117;-76
2021/06/08 09:01:10;;;;;;;15.48;12.70;;;;;;;;;;1896684;75;20084;-77
2021/06/08 09:03:36;;;;;;;14.07;12.02;;;;;;;;;;1903512;67;20077;-76
2021/06/08 09:06:02;;;;;;;16.85;12.88;;;;;;;;;;1894551;75;20086;-76
2021/06/08 09:08:27;;;;;;;14.02;12.50;;;;;;;;;;1896181;75;20941;-77
2021/06/08 09:10:53;;;;;;;16.60;12.27;;;;;;;;;;1896546;75;20486;-76
2021/06/08 09:13:19;;;;;;;14.07;12.45;;;;;;;;;;1896510;75;20081;-76
2021/06/08 09:15:44;;;;;;;14.00;12.25;;;;;;;;;;1898668;67;20107;-76
2021/06/08 09:18:10;;;;;;;14.77;13.18;;;;;;;;;;1899274;75;20088;-76
2021/06/08 09:20:36;;;;;;;14.43;12.93;;;;;;;;;;1896811;75;20142;-76
2021/06/08 09:23:03;;;;;;;13.43;12.13;;;;;;;;;;1900064;75;20085;-77
2021/06/08 09:25:38;;;;;;;15.35;12.02;;;;;;;;;;1900417;67;20139;-76
2021/06/08 09:28:35;;;;;;;14.73;13.23;;;;;;;;;;1902299;75;20092;-77
2021/06/08 09:31:16;;;;;;;13.85;12.55;;;;;;;;;;1899003;75;20089;-76
2021/06/08 09:33:52;;;;;;;13.82;12.43;;;;;;;;;;1902271;75;20096;-76
2021/06/08 09:36:19;;;;;;;13.77;12.40;;;;;;;;;;1900106;67;20129;-76
2021/06/08 09:38:47;;;;;;;13.35;12.05;;;;;;;;;;1902543;67;20125;-76
2021/06/08 09:41:13;;;;;;;14.27;12.77;;;;;;;;;;1902950;67;20093;-76
2021/06/08 09:43:48;;;;;;;14.18;12.65;;;;;;;;;;1899320;67;20089;-77
2021/06/08 09:46:14;;;;;;;14.52;12.82;;;;;;;;;;1898287;75;20506;-77
2021/06/08 09:49:09;;;;;;;13.55;12.07;;;;;;;;;;1899594;67;20479;-77
2021/06/08 09:51:53;;;;;;;13.48;12.18;;;;;;;;;;1898995;67;20556;-76
2021/06/08 09:54:27;;;;;;;15.73;12.95;;;;;;;;;;1901302;75;20088;-78
2021/06/08 09:57:21;;;;;;;15.15;13.38;;;;;;;;;;1901923;75;20104;-77
2021/06/08 09:59:57;;;;;;;15.32;13.60;;;;;;;;;;1902000;67;20142;-77
2021/06/08 10:02:38;;;;;;;17.58;12.40;;;;;;;;;;1898191;75;20080;-76
2021/06/08 10:05:27;;;;;;;15.38;12.93;;;;;;;;;;1899821;67;20093;-77
2021/06/08 10:08:12;;;;;;;14.45;12.23;;;;;;;;;;1896667;75;20095;-77
2021/06/08 10:10:39;;;;;;;15.05;13.45;;;;;;;;;;1898933;67;20089;-77
2021/06/08 10:13:14;;;;;;;14.27;12.88;;;;;;;;;;1896776;75;20124;-77
2021/06/08 10:15:50;;;;;;;13.50;12.05;;;;;;;;;;1895329;75;20152;-77
2021/06/08 10:18:15;;;;;;;13.50;12.15;;;;;;;;;;1898729;75;20088;-77
2021/06/08 10:20:50;;;;;;;13.60;12.20;;;;;;;;;;1898953;67;20115;-77
2021/06/08 10:23:31;;;;;;;14.32;12.82;;;;;;;;;;1897640;75;20085;-77
2021/06/08 10:28:27;;;;;;;14.27;12.88;;;;;;;;;;1896504;67;20389;-58
2021/06/08 10:30:53;;;;;;;14.77;13.32;;;;;;;;;;1902506;75;20085;-60
2021/06/08 10:33:21;;;;;;;15.10;13.60;;;;;;;;;;1900646;67;20148;-59
2021/06/08 10:35:46;;;;;;;16.38;13.40;;;;;;;;;;1904265;67;20647;-60
2021/06/08 10:38:12;;;;;;;14.63;12.88;;;;;;;;;;1899978;67;20172;-61
2021/06/08 10:40:39;;;;;;;15.35;13.63;;;;;;;;;;1901111;67;20143;-62
2021/06/08 10:43:05;;;;;;;15.50;13.77;;;;;;;;;;1903545;67;20671;-60
2021/06/08 10:45:37;;;;;;;14.93;13.32;;;;;;;;;;1902518;67;20081;-61
2021/06/08 10:48:29;;;;;;;15.13;13.63;;;;;;;;;;1900440;67;20085;-59
2021/06/08 10:51:09;;;;;;;15.98;14.05;;;;;;;;;;1901764;67;20538;-63
2021/06/08 10:53:36;;;;;;;14.35;12.85;;;;;;;;;;1902120;67;20085;-58
2021/06/08 10:56:01;;;;;;;16.38;13.52;;;;;;;;;;1898734;67;20720;-57
2021/06/08 10:58:50;;;;;;;15.10;12.80;;;;;;;;;;1902245;67;20133;-57
2021/06/08 11:01:41;;;;;;;15.32;13.40;;;;;;;;;;1904765;67;20089;-62
2021/06/08 11:04:07;;;;;;;15.30;13.70;;;;;;;;;;1900925;67;20538;-61
2021/06/08 11:06:51;;;;;;;15.15;13.30;;;;;;;;;;1900813;75;20096;-65
2021/06/08 11:09:22;;;;;;;14.77;13.25;;;;;;;;;;1902917;75;20072;-62
2021/06/08 11:12:01;;;;;;;14.60;13.07;;;;;;;;;;1902939;75;20605;-60
2021/06/08 11:17:38;;;;;;;15.82;13.95;;;;;;;;;;1892764;75;20086;-60
2021/06/08 11:20:26;;;;;;;18.37;14.43;;;;;;;;;;1892979;75;20151;-61
2021/06/08 11:22:56;;;;;;;15.50;13.65;;;;;;;;;;1900957;67;21847;-60
2021/06/08 11:25:32;;;;;;;14.75;13.25;;;;;;;;;;1901281;75;20085;-60
2021/06/08 11:27:59;;;;;;;15.45;13.95;;;;;;;;;;1900880;67;20100;-61
2021/06/08 11:30:29;;;;;;;14.93;13.20;;;;;;;;;;1901935;75;20089;-61
2021/06/08 11:32:55;;;;;;;15.27;13.30;;;;;;;;;;1903362;75;20153;-60
2021/06/08 11:35:29;;;;;;;15.07;13.48;;;;;;;;;;1901772;67;20625;-61
2021/06/08 11:38:14;;;;;;;14.75;13.35;;;;;;;;;;1901926;67;20151;-60
2021/06/08 11:40:40;;;;;;;15.88;13.70;;;;;;;;;;1902316;75;20077;-61
2021/06/08 11:43:11;;;;;;;15.18;13.68;;;;;;;;;;1901839;75;20085;-60
2021/06/08 11:45:42;;;;;;;15.23;13.70;;;;;;;;;;1902140;67;20092;-61
2021/06/08 11:48:31;;;;;;;15.68;14.07;;;;;;;;;;1901375;67;20096;-61
2021/06/08 11:51:00;;;;;;;16.30;14.70;;;;;;;;;;1901697;75;20140;-61
2021/06/08 11:53:25;;;;;;;14.70;13.30;;;;;;;;;;1901584;75;20085;-59
2021/06/08 11:56:10;;;;;;;16.48;14.77;;;;;;;;;;1898602;75;20089;-60
2021/06/08 11:58:37;;;;;;;16.17;14.48;;;;;;;;;;1899600;75;20082;-63
2021/06/08 12:01:06;;;;;;;15.45;13.95;;;;;;;;;;1903921;67;20089;-59
2021/06/08 12:03:35;;;;;;;15.50;13.88;;;;;;;;;;1903607;75;20082;-61
2021/06/08 12:06:01;;;;;;;15.80;14.20;;;;;;;;;;1902330;75;20522;-61
2021/06/08 12:08:30;;;;;;;15.05;13.55;;;;;;;;;;1902514;75;20081;-61
2021/06/08 12:10:56;;;;;;;14.77;13.00;;;;;;;;;;1903239;67;20517;-58
2021/06/08 12:13:31;;;;;;;15.00;13.50;;;;;;;;;;1901506;67;20085;-62
2021/06/08 12:15:57;;;;;;;15.65;13.13;;;;;;;;;;1902070;75;20097;-63
2021/06/08 12:18:33;;;;;;;17.17;13.77;;;;;;;;;;1903213;75;20085;-62
2021/06/08 12:20:58;;;;;;;14.93;13.43;;;;;;;;;;1901800;75;20085;-62
2021/06/08 12:23:27;;;;;;;14.77;13.02;;;;;;;;;;1902614;67;20085;-59
2021/06/08 12:25:52;;;;;;;16.42;13.27;;;;;;;;;;1902349;75;20147;-60
2021/06/08 12:28:18;;;;;;;15.65;14.05;;;;;;;;;;1902181;75;20085;-59
2021/06/08 12:30:43;;;;;;;18.52;15.18;;;;;;;;;;1902343;67;20084;-62
2021/06/08 12:33:08;;;;;;;17.63;14.63;;;;;;;;;;1901967;67;20093;-60
2021/06/08 12:35:35;;;;;;;15.80;14.30;;;;;;;;;;1902205;67;20104;-60
2021/06/08 12:38:16;;;;;;;15.15;13.63;;;;;;;;;;1901792;75;20597;-60
2021/06/08 12:40:43;;;;;;;17.30;14.20;;;;;;;;;;1901476;67;20713;-60
2021/06/08 12:43:08;;;;;;;16.73;14.88;;;;;;;;;;1904289;67;20425;-60
2021/06/08 12:45:34;;;;;;;15.73;13.82;;;;;;;;;;1902849;75;20081;-62
2021/06/08 12:47:59;;;;;;;15.85;14.00;;;;;;;;;;1904779;75;20084;-61
2021/06/08 12:50:29;;;;;;;16.45;14.55;;;;;;;;;;1903587;67;20163;-60
2021/06/08 12:52:59;;;;;;;16.23;14.63;;;;;;;;;;1901260;75;20139;-62
2021/06/08 12:55:26;;;;;;;16.55;14.13;;;;;;;;;;1901043;67;20144;-61
2021/06/08 12:57:54;;;;;;;16.45;14.07;;;;;;;;;;1901563;75;20077;-62
2021/06/08 13:00:21;;;;;;;15.85;13.63;;;;;;;;;;1901163;75;20097;-61
2021/06/08 13:02:47;;;;;;;15.10;13.38;;;;;;;;;;1904112;75;20111;-63
2021/06/08 13:05:13;;;;;;;15.30;13.68;;;;;;;;;;1903544;67;20132;-61
2021/06/08 13:07:39;;;;;;;16.27;14.38;;;;;;;;;;1901038;75;20089;-62
2021/06/08 13:10:12;;;;;;;15.15;13.55;;;;;;;;;;1901200;75;20077;-63
2021/06/08 13:12:47;;;;;;;15.20;13.70;;;;;;;;;;1901988;75;20081;-61
2021/06/08 13:15:17;;;;;;;15.45;13.18;;;;;;;;;;1902217;75;20081;-62
2021/06/08 13:17:43;;;;;;;14.98;13.48;;;;;;;;;;1903248;67;20077;-61
2021/06/08 13:20:24;;;;;;;15.18;13.57;;;;;;;;;;1901969;75;20089;-60
2021/06/08 13:22:49;;;;;;;14.50;13.02;;;;;;;;;;1901780;75;20099;-61
2021/06/08 13:25:15;;;;;;;18.25;13.45;;;;;;;;;;1901096;75;20089;-63
2021/06/08 13:27:41;;;;;;;14.50;13.10;;;;;;;;;;1900611;67;20085;-59
2021/06/08 13:30:23;;;;;;;14.25;12.93;;;;;;;;;;1901813;75;20383;-62
2021/06/08 13:33:06;;;;;;;14.63;13.18;;;;;;;;;;1904563;75;20088;-60
2021/06/08 13:35:36;;;;;;;15.05;13.60;;;;;;;;;;1904775;75;20152;-62
2021/06/08 13:38:06;;;;;;;14.70;13.27;;;;;;;;;;1903763;67;20544;-62
2021/06/08 13:40:34;;;;;;;14.75;13.25;;;;;;;;;;1901073;67;20204;-64
2021/06/08 13:43:12;;;;;;;16.20;14.00;;;;;;;;;;1901647;67;20093;-64
2021/06/08 13:45:38;;;;;;;15.55;13.90;;;;;;;;;;1904696;67;20092;-64
2021/06/08 13:48:34;;;;;;;14.38;12.98;;;;;;;;;;1904385;75;20231;-64
2021/06/08 13:51:20;;;;;;;15.02;13.45;;;;;;;;;;1903419;67;20089;-62
2021/06/08 13:54:09;;;;;;;13.82;12.43;;;;;;;;;;1901935;75;20379;-64
2021/06/08 13:57:01;;;;;;;14.48;13.07;;;;;;;;;;1901613;75;20084;-63
2021/06/08 14:02:42;;;;;;;14.27;12.60;;;;;;;;;;1902042;67;20096;-62
2021/06/08 14:05:08;;;;;;;14.10;12.80;;;;;;;;;;1903309;67;20092;-64
2021/06/08 14:07:34;;;;;;;16.42;12.93;;;;;;;;;;1901563;75;20092;-61
2021/06/08 14:10:07;;;;;;;13.20;12.10;;;;;;;;;;1902911;67;20085;-60
2021/06/08 14:12:32;;;;;;;14.07;12.63;;;;;;;;;;1901522;67;20081;-59
2021/06/08 14:15:08;;;;;;;14.07;12.68;;;;;;;;;;1901642;75;20092;-61
2021/06/08 14:17:33;;;;;;;14.23;12.82;;;;;;;;;;1898530;75;20090;-62
2021/06/08 14:19:59;;;;;;;13.48;12.18;;;;;;;;;;1898611;75;20148;-62
2021/06/08 14:22:24;;;;;;;13.60;12.15;;;;;;;;;;1900278;67;20141;-61
2021/06/08 14:24:50;;;;;;;13.50;12.13;;;;;;;;;;1902052;75;20092;-60
2021/06/08 14:27:19;;;;;;;13.20;11.85;;;;;;;;;;1901686;75;20085;-62
2021/06/08 14:29:44;;;;;;;12.95;11.75;;;;;;;;;;1901881;67;20081;-61
2021/06/08 14:32:10;;;;;;;13.57;12.18;;;;;;;;;;1904020;75;20084;-61
2021/06/08 14:34:36;;;;;;;13.43;12.23;;;;;;;;;;1902025;67;20085;-62
2021/06/08 14:37:01;;;;;;;13.48;12.13;;;;;;;;;;1898727;75;20100;-60
2021/06/08 14:39:27;;;;;;;12.88;11.63;;;;;;;;;;1902687;67;20166;-61
2021/06/08 14:41:52;;;;;;;12.32;11.13;;;;;;;;;;1901354;75;20486;-61
2021/06/08 14:44:18;;;;;;;13.43;12.23;;;;;;;;;;1902265;67;20092;-60
2021/06/08 14:46:45;;;;;;;13.70;12.15;;;;;;;;;;1904044;75;20494;-61